images/hfc/images/print_logo.png
Drucken
[Quelle: ADDS]
METAR
EDDW 222250Z VRB01KT 7000 NSC 09/08 Q1025 =
TAF
AMD EDDW 222113Z 2221/2318 18004KT CAVOK BECMG 2300/2303 24007KT 3000 BR BKN004 TEMPO 2303/2308 0600 FG BKN001 BECMG 2308/2311 30012KT 9999 BKN012 BECMG 2311/2313 SCT030 =
BCMT / ECET: 04:43 / 18:19 UTC (EDDW 2019-03-23)

printlogo=no